Montegut, LA (70377)

1:48 PM CDT on April 25, 2015 (GMT -0500)
Green Acres | | Change Station
CLOSE
Current Station
Personal Weather Station
Location: Bourg, LA
Elevation: 16 ft
Nearby Weather Stations
Active Advisory: Severe Thunderstorm Watch

Elev 16 ft 29.56 °N, 90.64 °W | Updated 6 seconds ago

Mostly Cloudy
Mostly Cloudy
70.0 °F
Feels Like 70.0 °F
N
15.0
Wind Variable Wind from NNW
Gusts 15.0 mph

Today
High -- | Low -- °F
--% Chance of Precip.
Yesterday
High -- | Low -- °F
Precip. -- in
6:25 AM 7:34 PM
Waxing Crescent, 48% visible
Pressure 29.89 in
Visibility 5.0 miles
Clouds Scattered Clouds 1300 ft
Mostly Cloudy 2900 ft
Overcast 7000 ft
Dew Point 70 °F
Humidity 99%
Rainfall 0.02 in
Snow Depth Not available.
UV 4 out of 12
Pollen 6.20 out of 12
Air Quality Not available.
Flu Activity Sporadic
SPECI KHUM 251830Z 31018G28KT 5SM VCTS BR SCT013 BKN029 OVC070 21/20 A2989 RMK ATISM GPS RY30...........LJ

More Conditions Fewer Conditions

Pressure 29.89 in
Visibility 5.0 miles
Clouds Scattered Clouds 1300 ft
Mostly Cloudy 2900 ft
Overcast 7000 ft
Dew Point 70 °F
Humidity 99%
Rainfall 0.02 in
Snow Depth Not available.
UV 4 out of 12
Pollen 6.20 out of 12
Air Quality Not available.
Flu Activity Sporadic
SPECI KHUM 251830Z 31018G28KT 5SM VCTS BR SCT013 BKN029 OVC070 21/20 A2989 RMK ATISM GPS RY30...........LJ

More Conditions Fewer Conditions

10-Day Weather Forecast

Almanac

Astronomy

Apr. 25, 2015 Rise Set
Actual Time
Civil Twilight
Nautical Twilight
Astronomical Twilight
Moon
Length of Visible Light
Length of Day
Tomorrow will be .
, % of the Moon is Illuminated

Today's Extremes

State Highs State Lows

Community

WunderPhotos

Upload Photos

1,816,767 photos uploaded!

WunderBlogs® & News

Nearby

Air Quality

  Air Quality AQ Index Pollutant
Not available.

Snow Depth

Station Depth Elevation

Earthquake Activity

City Distance Mag. Time & Date
Minimum magnitude displayed is 2.5.

Coastal Water Temperatures

Place Temperature

Stations

Nearby Weather Stations

Station Location Temp. Windchill Dew Point Humidity Wind Precip. Elev Updated Type
                   
Severe Thunderstorm Watch
Statement as of 1:43 PM CDT on April 25, 2015

Severe Thunderstorm Watch 111 remains in effect until 600 PM CDT
for the following locations


La
. Louisiana parishes included are

Jefferson Lafourche Orleans
Plaquemines St. Bernard St. Charles
St. John The Baptist St. Tammany Terrebonne
Washington